sensor_id;sensor_type;location;lat;lon;timestamp;pressure;altitude;pressure_sealevel;temperature;humidity
68994;BME280;56054;50.968;5.816;2023-04-20T00:02:36;101259.50;;;8.25;52.48
68994;BME280;56054;50.968;5.816;2023-04-20T00:05:36;101256.88;;;8.35;54.31
68994;BME280;56054;50.968;5.816;2023-04-20T00:08:37;101248.03;;;8.43;53.76
68994;BME280;56054;50.968;5.816;2023-04-20T00:11:38;101238.22;;;8.39;53.95
68994;BME280;56054;50.968;5.816;2023-04-20T00:14:38;101231.53;;;8.21;54.16
68994;BME280;56054;50.968;5.816;2023-04-20T00:17:38;101239.63;;;8.03;53.60
68994;BME280;56054;50.968;5.816;2023-04-20T00:20:39;101233.25;;;8.20;52.83
68994;BME280;56054;50.968;5.816;2023-04-20T00:23:40;101233.16;;;8.08;54.37
68994;BME280;56054;50.968;5.816;2023-04-20T00:26:40;101237.53;;;8.20;55.29
68994;BME280;56054;50.968;5.816;2023-04-20T00:29:41;101225.00;;;8.36;55.46
68994;BME280;56054;50.968;5.816;2023-04-20T00:32:41;101229.03;;;8.00;54.14
68994;BME280;56054;50.968;5.816;2023-04-20T00:35:42;101221.59;;;7.83;53.11
68994;BME280;56054;50.968;5.816;2023-04-20T00:38:45;101210.22;;;7.70;53.47
68994;BME280;56054;50.968;5.816;2023-04-20T00:41:46;101209.44;;;7.82;53.73
68994;BME280;56054;50.968;5.816;2023-04-20T00:44:46;101208.28;;;7.78;52.78
68994;BME280;56054;50.968;5.816;2023-04-20T00:47:46;101202.41;;;7.91;53.31
68994;BME280;56054;50.968;5.816;2023-04-20T00:50:48;101200.91;;;7.83;52.33
68994;BME280;56054;50.968;5.816;2023-04-20T00:53:49;101210.50;;;7.53;52.55
68994;BME280;56054;50.968;5.816;2023-04-20T00:56:51;101200.72;;;7.39;52.28
68994;BME280;56054;50.968;5.816;2023-04-20T00:59:52;101195.81;;;7.42;51.45
68994;BME280;56054;50.968;5.816;2023-04-20T01:02:55;101193.63;;;7.46;51.41
68994;BME280;56054;50.968;5.816;2023-04-20T01:05:56;101191.28;;;7.39;50.94
68994;BME280;56054;50.968;5.816;2023-04-20T01:08:56;101191.03;;;7.46;52.24
68994;BME280;56054;50.968;5.816;2023-04-20T01:11:57;101178.25;;;7.27;51.75
68994;BME280;56054;50.968;5.816;2023-04-20T01:14:57;101175.25;;;7.33;51.39
68994;BME280;56054;50.968;5.816;2023-04-20T01:17:58;101171.41;;;7.28;51.49
68994;BME280;56054;50.968;5.816;2023-04-20T01:20:58;101173.84;;;7.26;51.81
68994;BME280;56054;50.968;5.816;2023-04-20T01:24:01;101171.41;;;7.18;51.78
68994;BME280;56054;50.968;5.816;2023-04-20T01:27:01;101155.75;;;7.26;52.01
68994;BME280;56054;50.968;5.816;2023-04-20T01:30:02;101161.72;;;7.15;51.91
68994;BME280;56054;50.968;5.816;2023-04-20T01:33:03;101150.34;;;7.13;52.63
68994;BME280;56054;50.968;5.816;2023-04-20T01:36:05;101139.13;;;7.13;53.20
68994;BME280;56054;50.968;5.816;2023-04-20T01:39:06;101137.19;;;7.10;53.20
68994;BME280;56054;50.968;5.816;2023-04-20T01:42:06;101134.22;;;6.95;52.61
68994;BME280;56054;50.968;5.816;2023-04-20T01:45:07;101131.63;;;6.95;52.94
68994;BME280;56054;50.968;5.816;2023-04-20T01:48:08;101122.97;;;6.95;52.53
68994;BME280;56054;50.968;5.816;2023-04-20T01:51:09;101121.81;;;6.91;52.80
68994;BME280;56054;50.968;5.816;2023-04-20T01:54:09;101123.75;;;6.94;52.77
68994;BME280;56054;50.968;5.816;2023-04-20T01:57:10;101118.56;;;7.04;52.82
68994;BME280;56054;50.968;5.816;2023-04-20T02:00:11;101110.97;;;6.95;52.48
68994;BME280;56054;50.968;5.816;2023-04-20T02:03:14;101110.44;;;6.99;52.24
68994;BME280;56054;50.968;5.816;2023-04-20T02:06:21;101105.25;;;7.20;52.69
68994;BME280;56054;50.968;5.816;2023-04-20T02:09:21;101108.22;;;7.04;51.64
68994;BME280;56054;50.968;5.816;2023-04-20T02:12:23;101102.56;;;6.98;52.14
68994;BME280;56054;50.968;5.816;2023-04-20T02:15:23;101105.91;;;6.97;51.65
68994;BME280;56054;50.968;5.816;2023-04-20T02:18:24;101099.22;;;6.89;51.61
68994;BME280;56054;50.968;5.816;2023-04-20T02:21:24;101096.38;;;6.85;50.99
68994;BME280;56054;50.968;5.816;2023-04-20T02:24:25;101095.44;;;6.85;51.55
68994;BME280;56054;50.968;5.816;2023-04-20T02:27:25;101087.31;;;7.01;51.20
68994;BME280;56054;50.968;5.816;2023-04-20T02:30:26;101082.94;;;6.79;51.14
68994;BME280;56054;50.968;5.816;2023-04-20T02:33:26;101085.66;;;6.91;51.85
68994;BME280;56054;50.968;5.816;2023-04-20T02:36:27;101084.75;;;6.80;51.46
68994;BME280;56054;50.968;5.816;2023-04-20T02:39:27;101077.25;;;6.83;51.49
68994;BME280;56054;50.968;5.816;2023-04-20T02:42:28;101077.00;;;6.91;51.65
68994;BME280;56054;50.968;5.816;2023-04-20T02:45:31;101074.69;;;6.83;51.64
68994;BME280;56054;50.968;5.816;2023-04-20T02:48:32;101066.94;;;6.83;52.76
68994;BME280;56054;50.968;5.816;2023-04-20T02:51:33;101057.09;;;6.90;52.17
68994;BME280;56054;50.968;5.816;2023-04-20T02:54:34;101061.53;;;6.80;52.07
68994;BME280;56054;50.968;5.816;2023-04-20T02:57:35;101048.47;;;6.79;52.00
68994;BME280;56054;50.968;5.816;2023-04-20T03:00:36;101063.56;;;6.74;51.78
68994;BME280;56054;50.968;5.816;2023-04-20T03:03:40;101055.56;;;6.81;52.07
68994;BME280;56054;50.968;5.816;2023-04-20T03:06:44;101045.88;;;6.89;52.20
68994;BME280;56054;50.968;5.816;2023-04-20T03:09:49;101023.66;;;6.91;52.07
68994;BME280;56054;50.968;5.816;2023-04-20T03:12:50;101033.34;;;6.94;52.71
68994;BME280;56054;50.968;5.816;2023-04-20T03:15:56;101032.31;;;6.81;52.68
68994;BME280;56054;50.968;5.816;2023-04-20T03:19:04;101020.16;;;6.91;53.69
68994;BME280;56054;50.968;5.816;2023-04-20T03:22:05;101002.06;;;7.01;53.08
68994;BME280;56054;50.968;5.816;2023-04-20T03:25:06;101003.13;;;6.93;52.52
68994;BME280;56054;50.968;5.816;2023-04-20T03:28:27;101010.34;;;6.86;53.20
68994;BME280;56054;50.968;5.816;2023-04-20T03:31:28;101003.88;;;6.92;53.26
68994;BME280;56054;50.968;5.816;2023-04-20T03:34:30;100995.50;;;6.84;53.77
68994;BME280;56054;50.968;5.816;2023-04-20T03:37:31;101000.03;;;6.86;53.58
68994;BME280;56054;50.968;5.816;2023-04-20T03:40:31;100997.22;;;6.73;53.37
68994;BME280;56054;50.968;5.816;2023-04-20T03:43:32;100999.25;;;6.77;53.68
68994;BME280;56054;50.968;5.816;2023-04-20T03:46:32;100996.16;;;6.81;53.96
68994;BME280;56054;50.968;5.816;2023-04-20T03:49:33;100993.31;;;6.68;53.47
68994;BME280;56054;50.968;5.816;2023-04-20T03:52:34;100981.72;;;6.73;53.22
68994;BME280;56054;50.968;5.816;2023-04-20T03:55:38;100972.78;;;6.80;53.67
68994;BME280;56054;50.968;5.816;2023-04-20T03:58:42;100982.72;;;6.75;53.69
68994;BME280;56054;50.968;5.816;2023-04-20T04:01:49;100976.56;;;6.73;54.25
68994;BME280;56054;50.968;5.816;2023-04-20T04:04:50;100972.16;;;6.72;54.36
68994;BME280;56054;50.968;5.816;2023-04-20T04:07:51;100976.19;;;6.69;54.20
68994;BME280;56054;50.968;5.816;2023-04-20T04:10:51;100969.09;;;6.66;54.88
68994;BME280;56054;50.968;5.816;2023-04-20T04:13:53;100974.50;;;6.69;55.06
68994;BME280;56054;50.968;5.816;2023-04-20T04:16:53;100978.63;;;6.67;55.09
68994;BME280;56054;50.968;5.816;2023-04-20T04:19:54;100974.91;;;6.63;55.75
68994;BME280;56054;50.968;5.816;2023-04-20T04:22:55;100977.47;;;6.74;56.24
68994;BME280;56054;50.968;5.816;2023-04-20T04:26:31;100970.63;;;6.64;56.85
68994;BME280;56054;50.968;5.816;2023-04-20T04:29:32;100973.06;;;6.62;57.34
68994;BME280;56054;50.968;5.816;2023-04-20T04:32:37;100961.84;;;6.62;57.33
68994;BME280;56054;50.968;5.816;2023-04-20T04:35:39;100969.47;;;6.60;57.92
68994;BME280;56054;50.968;5.816;2023-04-20T04:38:40;100974.53;;;6.59;58.79
68994;BME280;56054;50.968;5.816;2023-04-20T04:41:42;100982.78;;;6.55;59.52
68994;BME280;56054;50.968;5.816;2023-04-20T04:44:52;100975.69;;;6.52;64.61
68994;BME280;56054;50.968;5.816;2023-04-20T04:47:59;100962.88;;;6.64;69.15
68994;BME280;56054;50.968;5.816;2023-04-20T04:51:00;100966.28;;;6.32;70.13
68994;BME280;56054;50.968;5.816;2023-04-20T04:54:02;100962.66;;;6.40;71.99
68994;BME280;56054;50.968;5.816;2023-04-20T04:57:02;100952.66;;;6.65;70.94
68994;BME280;56054;50.968;5.816;2023-04-20T05:00:04;100960.84;;;6.50;74.64
68994;BME280;56054;50.968;5.816;2023-04-20T05:03:05;100963.19;;;6.47;72.54
68994;BME280;56054;50.968;5.816;2023-04-20T05:06:13;100960.97;;;6.51;72.75
68994;BME280;56054;50.968;5.816;2023-04-20T05:09:13;100968.31;;;6.57;72.46
68994;BME280;56054;50.968;5.816;2023-04-20T05:12:13;100960.56;;;6.57;72.46
68994;BME280;56054;50.968;5.816;2023-04-20T05:15:14;100954.91;;;6.61;72.42
68994;BME280;56054;50.968;5.816;2023-04-20T05:18:14;100970.50;;;6.52;76.71
68994;BME280;56054;50.968;5.816;2023-04-20T05:21:15;100969.75;;;6.63;73.96
68994;BME280;56054;50.968;5.816;2023-04-20T05:24:15;100980.94;;;6.74;74.35
68994;BME280;56054;50.968;5.816;2023-04-20T05:27:16;100977.47;;;6.63;74.77
68994;BME280;56054;50.968;5.816;2023-04-20T05:30:16;100979.53;;;6.68;74.36
68994;BME280;56054;50.968;5.816;2023-04-20T05:33:16;100969.81;;;6.75;75.00
68994;BME280;56054;50.968;5.816;2023-04-20T05:36:17;100966.34;;;6.75;74.41
68994;BME280;56054;50.968;5.816;2023-04-20T05:39:17;100962.25;;;6.67;72.25
68994;BME280;56054;50.968;5.816;2023-04-20T05:42:18;100963.09;;;6.77;73.76
68994;BME280;56054;50.968;5.816;2023-04-20T05:45:18;100958.34;;;6.72;72.75
68994;BME280;56054;50.968;5.816;2023-04-20T05:48:18;100965.78;;;6.89;73.52
68994;BME280;56054;50.968;5.816;2023-04-20T05:51:19;100957.75;;;6.96;73.53
68994;BME280;56054;50.968;5.816;2023-04-20T05:54:25;100965.91;;;6.91;74.25
68994;BME280;56054;50.968;5.816;2023-04-20T05:57:25;100975.97;;;6.88;74.62
68994;BME280;56054;50.968;5.816;2023-04-20T06:00:28;100973.53;;;6.89;75.68
68994;BME280;56054;50.968;5.816;2023-04-20T06:03:28;100961.78;;;6.82;74.69
68994;BME280;56054;50.968;5.816;2023-04-20T06:06:36;100975.09;;;6.87;74.37
68994;BME280;56054;50.968;5.816;2023-04-20T06:09:39;100963.28;;;6.69;74.61
68994;BME280;56054;50.968;5.816;2023-04-20T06:12:40;100968.16;;;6.76;74.43
68994;BME280;56054;50.968;5.816;2023-04-20T06:15:43;100961.16;;;6.75;76.34
68994;BME280;56054;50.968;5.816;2023-04-20T06:18:43;100956.38;;;6.79;75.66
68994;BME280;56054;50.968;5.816;2023-04-20T06:21:44;100965.47;;;6.64;74.98
68994;BME280;56054;50.968;5.816;2023-04-20T06:24:44;100954.47;;;6.77;75.95
68994;BME280;56054;50.968;5.816;2023-04-20T06:27:45;100952.53;;;6.74;75.31
68994;BME280;56054;50.968;5.816;2023-04-20T06:30:45;100940.78;;;6.68;76.96
68994;BME280;56054;50.968;5.816;2023-04-20T06:33:46;100937.88;;;6.85;78.22
68994;BME280;56054;50.968;5.816;2023-04-20T06:36:46;100930.78;;;6.82;78.95
68994;BME280;56054;50.968;5.816;2023-04-20T06:39:46;100932.28;;;6.69;79.83
68994;BME280;56054;50.968;5.816;2023-04-20T06:42:47;100917.16;;;6.73;79.15
68994;BME280;56054;50.968;5.816;2023-04-20T06:45:47;100921.69;;;6.65;79.91
68994;BME280;56054;50.968;5.816;2023-04-20T06:48:48;100920.47;;;6.82;79.48
68994;BME280;56054;50.968;5.816;2023-04-20T06:51:48;100913.28;;;6.68;80.35
68994;BME280;56054;50.968;5.816;2023-04-20T06:54:48;100914.06;;;6.67;80.74
68994;BME280;56054;50.968;5.816;2023-04-20T06:57:50;100907.34;;;6.69;78.92
68994;BME280;56054;50.968;5.816;2023-04-20T07:00:50;100908.50;;;6.73;79.34
68994;BME280;56054;50.968;5.816;2023-04-20T07:03:51;100902.44;;;6.72;78.99
68994;BME280;56054;50.968;5.816;2023-04-20T07:06:51;100911.16;;;6.84;80.35
68994;BME280;56054;50.968;5.816;2023-04-20T07:10:25;100910.00;;;6.91;81.22
68994;BME280;56054;50.968;5.816;2023-04-20T07:13:25;100900.72;;;6.83;79.25
68994;BME280;56054;50.968;5.816;2023-04-20T07:16:32;100905.91;;;6.83;80.18
68994;BME280;56054;50.968;5.816;2023-04-20T07:19:32;100900.19;;;6.87;81.50
68994;BME280;56054;50.968;5.816;2023-04-20T07:22:34;100896.47;;;6.83;79.42
68994;BME280;56054;50.968;5.816;2023-04-20T07:25:34;100900.31;;;6.89;80.78
68994;BME280;56054;50.968;5.816;2023-04-20T07:28:35;100909.56;;;6.97;80.69
68994;BME280;56054;50.968;5.816;2023-04-20T07:31:35;100905.19;;;6.96;82.07
68994;BME280;56054;50.968;5.816;2023-04-20T07:34:35;100898.72;;;7.01;82.23
68994;BME280;56054;50.968;5.816;2023-04-20T07:37:36;100901.66;;;7.05;81.76
68994;BME280;56054;50.968;5.816;2023-04-20T07:40:36;100899.09;;;7.05;81.89
68994;BME280;56054;50.968;5.816;2023-04-20T07:43:37;100907.97;;;7.09;83.11
68994;BME280;56054;50.968;5.816;2023-04-20T07:46:37;100893.84;;;7.16;84.14
68994;BME280;56054;50.968;5.816;2023-04-20T07:49:38;100895.91;;;7.20;83.71
68994;BME280;56054;50.968;5.816;2023-04-20T07:52:38;100896.66;;;7.19;84.12
68994;BME280;56054;50.968;5.816;2023-04-20T07:55:39;100887.28;;;7.31;84.29
68994;BME280;56054;50.968;5.816;2023-04-20T07:58:39;100882.72;;;7.39;84.49
68994;BME280;56054;50.968;5.816;2023-04-20T08:01:39;100892.09;;;7.48;83.54
68994;BME280;56054;50.968;5.816;2023-04-20T08:04:40;100892.72;;;7.34;83.94
68994;BME280;56054;50.968;5.816;2023-04-20T08:07:40;100889.94;;;7.43;84.08
68994;BME280;56054;50.968;5.816;2023-04-20T08:10:41;100880.69;;;7.57;85.13
68994;BME280;56054;50.968;5.816;2023-04-20T08:13:43;100886.31;;;7.63;85.32
68994;BME280;56054;50.968;5.816;2023-04-20T08:16:44;100889.19;;;7.56;85.77
68994;BME280;56054;50.968;5.816;2023-04-20T08:19:45;100888.09;;;7.52;86.20
68994;BME280;56054;50.968;5.816;2023-04-20T08:22:45;100876.72;;;7.50;85.90
68994;BME280;56054;50.968;5.816;2023-04-20T08:25:48;100873.22;;;7.49;86.04
68994;BME280;56054;50.968;5.816;2023-04-20T08:28:49;100873.00;;;7.46;85.90
68994;BME280;56054;50.968;5.816;2023-04-20T08:31:49;100876.84;;;7.52;86.23
68994;BME280;56054;50.968;5.816;2023-04-20T08:34:50;100871.22;;;7.57;86.03
68994;BME280;56054;50.968;5.816;2023-04-20T08:37:50;100867.75;;;7.57;86.35
68994;BME280;56054;50.968;5.816;2023-04-20T08:40:50;100874.72;;;7.58;86.54
68994;BME280;56054;50.968;5.816;2023-04-20T08:43:51;100861.38;;;7.63;86.69
68994;BME280;56054;50.968;5.816;2023-04-20T08:46:51;100856.47;;;7.78;86.36
68994;BME280;56054;50.968;5.816;2023-04-20T08:49:52;100856.16;;;7.85;85.55
68994;BME280;56054;50.968;5.816;2023-04-20T08:52:54;100862.00;;;7.83;85.02
68994;BME280;56054;50.968;5.816;2023-04-20T08:55:54;100856.41;;;8.00;84.10
68994;BME280;56054;50.968;5.816;2023-04-20T08:58:57;100857.66;;;8.05;84.08
68994;BME280;56054;50.968;5.816;2023-04-20T09:02:11;100855.75;;;8.14;83.76
68994;BME280;56054;50.968;5.816;2023-04-20T09:05:12;100851.47;;;8.15;84.37
68994;BME280;56054;50.968;5.816;2023-04-20T09:08:13;100847.28;;;8.05;83.89
68994;BME280;56054;50.968;5.816;2023-04-20T09:11:27;100847.72;;;8.00;84.72
68994;BME280;56054;50.968;5.816;2023-04-20T09:14:27;100840.72;;;7.87;85.52
68994;BME280;56054;50.968;5.816;2023-04-20T09:17:36;100848.13;;;7.82;84.78
68994;BME280;56054;50.968;5.816;2023-04-20T09:20:36;100843.88;;;7.83;85.77
68994;BME280;56054;50.968;5.816;2023-04-20T09:23:37;100842.28;;;7.73;85.32
68994;BME280;56054;50.968;5.816;2023-04-20T09:26:37;100844.53;;;7.80;85.52
68994;BME280;56054;50.968;5.816;2023-04-20T09:29:38;100847.28;;;8.05;85.05
68994;BME280;56054;50.968;5.816;2023-04-20T09:32:38;100845.84;;;8.21;83.75
68994;BME280;56054;50.968;5.816;2023-04-20T09:35:40;100836.13;;;7.94;82.50
68994;BME280;56054;50.968;5.816;2023-04-20T09:38:40;100842.22;;;8.19;82.69
68994;BME280;56054;50.968;5.816;2023-04-20T09:41:43;100841.47;;;8.20;81.92
68994;BME280;56054;50.968;5.816;2023-04-20T09:44:43;100852.25;;;8.26;82.14
68994;BME280;56054;50.968;5.816;2023-04-20T09:47:46;100845.28;;;8.13;81.55
68994;BME280;56054;50.968;5.816;2023-04-20T09:50:47;100846.16;;;8.13;82.57
68994;BME280;56054;50.968;5.816;2023-04-20T09:54:05;100833.25;;;8.25;82.92
68994;BME280;56054;50.968;5.816;2023-04-20T09:57:15;100836.50;;;8.23;82.08
68994;BME280;56054;50.968;5.816;2023-04-20T10:00:16;100833.81;;;8.33;82.71
68994;BME280;56054;50.968;5.816;2023-04-20T10:03:18;100832.78;;;8.07;81.24
68994;BME280;56054;50.968;5.816;2023-04-20T10:09:24;100833.81;;;8.33;81.57
68994;BME280;56054;50.968;5.816;2023-04-20T10:12:25;100821.88;;;8.35;81.28
68994;BME280;56054;50.968;5.816;2023-04-20T10:15:39;100825.47;;;8.37;80.87
68994;BME280;56054;50.968;5.816;2023-04-20T10:18:39;100818.97;;;8.42;81.07
68994;BME280;56054;50.968;5.816;2023-04-20T10:21:45;100823.00;;;8.27;80.21
68994;BME280;56054;50.968;5.816;2023-04-20T10:24:46;100806.34;;;8.35;80.94
68994;BME280;56054;50.968;5.816;2023-04-20T10:28:00;100809.72;;;8.34;80.77
68994;BME280;56054;50.968;5.816;2023-04-20T10:31:01;100816.69;;;8.35;80.51
68994;BME280;56054;50.968;5.816;2023-04-20T10:34:01;100807.47;;;8.27;81.29
68994;BME280;56054;50.968;5.816;2023-04-20T10:37:08;100811.06;;;8.17;81.27
68994;BME280;56054;50.968;5.816;2023-04-20T10:40:09;100807.22;;;8.24;81.06
68994;BME280;56054;50.968;5.816;2023-04-20T10:43:20;100802.19;;;8.37;81.48
68994;BME280;56054;50.968;5.816;2023-04-20T10:46:24;100793.75;;;8.40;80.87
68994;BME280;56054;50.968;5.816;2023-04-20T10:49:28;100793.22;;;8.44;81.95
68994;BME280;56054;50.968;5.816;2023-04-20T10:52:36;100790.13;;;8.38;81.12
68994;BME280;56054;50.968;5.816;2023-04-20T10:55:37;100800.28;;;8.34;85.53
68994;BME280;56054;50.968;5.816;2023-04-20T10:58:37;100800.25;;;8.11;86.11
68994;BME280;56054;50.968;5.816;2023-04-20T11:01:38;100802.41;;;8.28;88.16
68994;BME280;56054;50.968;5.816;2023-04-20T11:04:39;100799.38;;;8.22;88.51
68994;BME280;56054;50.968;5.816;2023-04-20T11:10:50;100788.00;;;8.20;91.53
68994;BME280;56054;50.968;5.816;2023-04-20T11:13:50;100783.59;;;8.31;91.84
68994;BME280;56054;50.968;5.816;2023-04-20T11:16:51;100791.94;;;8.27;88.65
68994;BME280;56054;50.968;5.816;2023-04-20T11:20:03;100786.34;;;8.44;87.57
68994;BME280;56054;50.968;5.816;2023-04-20T11:23:03;100778.84;;;8.72;86.55
68994;BME280;56054;50.968;5.816;2023-04-20T11:26:04;100780.50;;;8.84;85.68
68994;BME280;56054;50.968;5.816;2023-04-20T11:29:05;100774.06;;;8.90;84.99
68994;BME280;56054;50.968;5.816;2023-04-20T11:32:07;100758.41;;;8.89;82.01
68994;BME280;56054;50.968;5.816;2023-04-20T11:35:08;100760.97;;;9.00;82.29
68994;BME280;56054;50.968;5.816;2023-04-20T11:38:09;100757.72;;;9.16;81.79
68994;BME280;56054;50.968;5.816;2023-04-20T11:41:09;100757.25;;;9.22;79.63
68994;BME280;56054;50.968;5.816;2023-04-20T11:44:10;100762.22;;;9.19;79.74
68994;BME280;56054;50.968;5.816;2023-04-20T11:47:10;100753.59;;;9.07;80.36
68994;BME280;56054;50.968;5.816;2023-04-20T11:50:10;100747.84;;;8.86;81.14
68994;BME280;56054;50.968;5.816;2023-04-20T11:53:18;100748.94;;;8.89;82.43
68994;BME280;56054;50.968;5.816;2023-04-20T11:56:18;100749.28;;;8.82;84.27
68994;BME280;56054;50.968;5.816;2023-04-20T11:59:19;100763.34;;;8.13;91.63
68994;BME280;56054;50.968;5.816;2023-04-20T12:02:19;100781.97;;;7.62;100.00
68994;BME280;56054;50.968;5.816;2023-04-20T12:05:20;100792.63;;;7.21;100.00
68994;BME280;56054;50.968;5.816;2023-04-20T12:08:20;100784.34;;;7.25;100.00
68994;BME280;56054;50.968;5.816;2023-04-20T12:11:21;100777.25;;;7.23;100.00
68994;BME280;56054;50.968;5.816;2023-04-20T12:14:21;100769.31;;;7.32;100.00
68994;BME280;56054;50.968;5.816;2023-04-20T12:17:22;100775.16;;;7.41;100.00
68994;BME280;56054;50.968;5.816;2023-04-20T12:20:22;100775.34;;;7.78;100.00
68994;BME280;56054;50.968;5.816;2023-04-20T12:23:23;100761.66;;;7.79;100.00
68994;BME280;56054;50.968;5.816;2023-04-20T12:26:23;100761.22;;;8.20;100.00
68994;BME280;56054;50.968;5.816;2023-04-20T12:29:23;100762.66;;;8.28;100.00
68994;BME280;56054;50.968;5.816;2023-04-20T12:32:24;100760.63;;;8.35;100.00
68994;BME280;56054;50.968;5.816;2023-04-20T12:35:24;100765.59;;;8.32;100.00
68994;BME280;56054;50.968;5.816;2023-04-20T12:38:25;100753.69;;;8.46;100.00
68994;BME280;56054;50.968;5.816;2023-04-20T12:41:25;100749.28;;;8.82;100.00
68994;BME280;56054;50.968;5.816;2023-04-20T12:44:25;100742.25;;;9.05;100.00
68994;BME280;56054;50.968;5.816;2023-04-20T12:47:26;100738.31;;;9.23;100.00
68994;BME280;56054;50.968;5.816;2023-04-20T12:50:26;100743.19;;;9.18;100.00
68994;BME280;56054;50.968;5.816;2023-04-20T12:53:27;100730.16;;;9.30;100.00
68994;BME280;56054;50.968;5.816;2023-04-20T12:56:27;100730.50;;;9.10;97.35
68994;BME280;56054;50.968;5.816;2023-04-20T12:59:28;100728.41;;;9.56;96.60
68994;BME280;56054;50.968;5.816;2023-04-20T13:02:28;100727.44;;;9.29;96.33
68994;BME280;56054;50.968;5.816;2023-04-20T13:05:29;100721.47;;;9.68;95.58
68994;BME280;56054;50.968;5.816;2023-04-20T13:08:29;100715.00;;;9.88;94.95
68994;BME280;56054;50.968;5.816;2023-04-20T13:11:29;100711.97;;;10.08;96.15
68994;BME280;56054;50.968;5.816;2023-04-20T13:14:30;100724.91;;;9.55;87.87
68994;BME280;56054;50.968;5.816;2023-04-20T13:17:30;100722.94;;;9.51;87.15
68994;BME280;56054;50.968;5.816;2023-04-20T13:20:31;100716.47;;;9.19;87.31
68994;BME280;56054;50.968;5.816;2023-04-20T13:23:31;100720.66;;;9.17;89.89
68994;BME280;56054;50.968;5.816;2023-04-20T13:26:32;100720.97;;;9.22;90.39
68994;BME280;56054;50.968;5.816;2023-04-20T13:29:32;100721.75;;;9.21;91.60
68994;BME280;56054;50.968;5.816;2023-04-20T13:32:33;100728.38;;;9.29;91.68
68994;BME280;56054;50.968;5.816;2023-04-20T13:35:34;100723.63;;;9.49;90.82
68994;BME280;56054;50.968;5.816;2023-04-20T13:38:34;100722.63;;;9.60;90.36
68994;BME280;56054;50.968;5.816;2023-04-20T13:41:35;100714.47;;;9.54;89.19
68994;BME280;56054;50.968;5.816;2023-04-20T13:47:38;100712.25;;;9.47;88.64
68994;BME280;56054;50.968;5.816;2023-04-20T13:50:39;100707.63;;;9.29;87.32
68994;BME280;56054;50.968;5.816;2023-04-20T13:53:39;100708.00;;;9.74;88.32
68994;BME280;56054;50.968;5.816;2023-04-20T13:56:39;100695.53;;;9.81;86.10
68994;BME280;56054;50.968;5.816;2023-04-20T13:59:40;100692.69;;;10.18;85.49
68994;BME280;56054;50.968;5.816;2023-04-20T14:02:41;100690.03;;;10.58;80.72
68994;BME280;56054;50.968;5.816;2023-04-20T14:05:41;100682.03;;;10.68;80.24
68994;BME280;56054;50.968;5.816;2023-04-20T14:08:41;100691.25;;;10.63;78.68
68994;BME280;56054;50.968;5.816;2023-04-20T14:11:45;100683.72;;;10.68;77.88
68994;BME280;56054;50.968;5.816;2023-04-20T14:14:45;100681.22;;;10.69;77.29
68994;BME280;56054;50.968;5.816;2023-04-20T14:17:46;100677.38;;;10.78;75.23
68994;BME280;56054;50.968;5.816;2023-04-20T14:20:46;100673.19;;;10.52;72.81
68994;BME280;56054;50.968;5.816;2023-04-20T14:23:46;100678.88;;;10.46;73.44
68994;BME280;56054;50.968;5.816;2023-04-20T14:26:50;100681.94;;;10.39;74.06
68994;BME280;56054;50.968;5.816;2023-04-20T14:29:50;100680.03;;;10.64;74.27
68994;BME280;56054;50.968;5.816;2023-04-20T14:32:59;100680.31;;;10.69;74.16
68994;BME280;56054;50.968;5.816;2023-04-20T14:35:59;100685.53;;;10.56;72.60
68994;BME280;56054;50.968;5.816;2023-04-20T14:39:00;100673.84;;;10.62;70.63
68994;BME280;56054;50.968;5.816;2023-04-20T14:42:01;100669.97;;;11.42;69.21
68994;BME280;56054;50.968;5.816;2023-04-20T14:45:01;100669.94;;;11.56;67.50
68994;BME280;56054;50.968;5.816;2023-04-20T14:48:02;100666.78;;;11.62;66.90
68994;BME280;56054;50.968;5.816;2023-04-20T14:51:05;100665.19;;;11.34;68.53
68994;BME280;56054;50.968;5.816;2023-04-20T14:54:06;100661.88;;;11.22;68.46
68994;BME280;56054;50.968;5.816;2023-04-20T14:57:06;100656.56;;;11.21;66.91
68994;BME280;56054;50.968;5.816;2023-04-20T15:00:07;100654.13;;;11.09;67.17
68994;BME280;56054;50.968;5.816;2023-04-20T15:03:07;100656.25;;;10.86;67.48
68994;BME280;56054;50.968;5.816;2023-04-20T15:06:08;100662.03;;;10.67;68.74
68994;BME280;56054;50.968;5.816;2023-04-20T15:09:08;100652.91;;;11.17;68.09
68994;BME280;56054;50.968;5.816;2023-04-20T15:12:11;100648.28;;;11.87;68.21
68994;BME280;56054;50.968;5.816;2023-04-20T15:15:11;100643.34;;;11.77;64.58
68994;BME280;56054;50.968;5.816;2023-04-20T15:18:12;100642.66;;;12.11;64.90
68994;BME280;56054;50.968;5.816;2023-04-20T15:21:12;100640.47;;;12.18;64.68
68994;BME280;56054;50.968;5.816;2023-04-20T15:24:13;100640.13;;;11.81;65.51
68994;BME280;56054;50.968;5.816;2023-04-20T15:27:21;100639.94;;;11.93;59.66
68994;BME280;56054;50.968;5.816;2023-04-20T15:30:22;100645.81;;;11.44;60.59
68994;BME280;56054;50.968;5.816;2023-04-20T15:33:23;100639.09;;;11.33;61.22
68994;BME280;56054;50.968;5.816;2023-04-20T15:36:24;100642.13;;;11.41;62.30
68994;BME280;56054;50.968;5.816;2023-04-20T15:39:25;100635.91;;;11.83;61.65
68994;BME280;56054;50.968;5.816;2023-04-20T15:42:25;100624.22;;;11.76;62.01
68994;BME280;56054;50.968;5.816;2023-04-20T15:45:26;100625.59;;;12.16;61.41
68994;BME280;56054;50.968;5.816;2023-04-20T15:48:26;100617.63;;;12.13;60.25
68994;BME280;56054;50.968;5.816;2023-04-20T15:51:26;100623.91;;;12.49;61.43
68994;BME280;56054;50.968;5.816;2023-04-20T15:54:27;100625.22;;;12.57;59.81
68994;BME280;56054;50.968;5.816;2023-04-20T15:57:30;100632.53;;;12.32;60.54
68994;BME280;56054;50.968;5.816;2023-04-20T16:00:31;100637.31;;;12.08;60.48
68994;BME280;56054;50.968;5.816;2023-04-20T16:03:31;100626.66;;;12.19;60.48
68994;BME280;56054;50.968;5.816;2023-04-20T16:06:32;100633.69;;;12.37;60.71
68994;BME280;56054;50.968;5.816;2023-04-20T16:09:32;100626.19;;;12.43;60.88